Time;durP1;ratioP1;P1;durP2;ratioP2;P2;SDS_P1;SDS_P2;PMS_P1;PMS_P2;Temp;Humidity;BMP_temperature;BMP_pressure;BME280_temperature;BME280_humidity;BME280_pressure;Samples;Min_cycle;Max_cycle;Signal;HPM_P1;HPM_P2
2021/10/12 00:02:12;;;;;;;64.47;30.45;;;;;;;;;;5051748;28;20049;-60
2021/10/12 00:04:39;;;;;;;70.53;32.45;;;;;;;;;;5051889;28;20056;-63
2021/10/12 00:07:06;;;;;;;67.35;28.83;;;;;;;;;;5051281;28;20052;-63
2021/10/12 00:09:33;;;;;;;68.72;30.98;;;;;;;;;;5051817;28;20504;-62
2021/10/12 00:12:02;;;;;;;59.72;29.75;;;;;;;;;;5051600;28;20057;-62
2021/10/12 00:14:29;;;;;;;63.72;30.05;;;;;;;;;;5051886;28;20049;-63
2021/10/12 00:16:57;;;;;;;62.78;28.58;;;;;;;;;;5051739;28;20394;-63
2021/10/12 00:19:24;;;;;;;62.50;29.55;;;;;;;;;;5051628;28;20056;-63
2021/10/12 00:21:55;;;;;;;65.18;29.45;;;;;;;;;;5051427;28;20053;-62
2021/10/12 00:24:22;;;;;;;62.72;27.98;;;;;;;;;;5051816;28;20048;-63
2021/10/12 00:26:48;;;;;;;59.65;27.33;;;;;;;;;;5051375;28;20129;-63
2021/10/12 00:29:17;;;;;;;60.97;25.98;;;;;;;;;;5051786;28;20053;-62
2021/10/12 00:31:44;;;;;;;48.60;22.27;;;;;;;;;;5051291;28;20053;-62
2021/10/12 00:34:11;;;;;;;44.90;21.38;;;;;;;;;;5051717;28;20561;-62
2021/10/12 00:36:38;;;;;;;44.65;21.52;;;;;;;;;;5051324;28;20060;-63
2021/10/12 00:39:05;;;;;;;42.50;19.27;;;;;;;;;;5052274;28;20104;-63
2021/10/12 00:41:32;;;;;;;47.28;20.73;;;;;;;;;;5055608;28;20052;-64
2021/10/12 00:44:00;;;;;;;39.28;18.45;;;;;;;;;;5055726;28;20049;-63
2021/10/12 00:46:29;;;;;;;42.00;17.85;;;;;;;;;;5055582;28;20045;-63
2021/10/12 00:48:58;;;;;;;39.00;18.10;;;;;;;;;;5055554;28;20064;-62
2021/10/12 00:51:25;;;;;;;42.63;20.85;;;;;;;;;;5055269;28;20060;-63
2021/10/12 00:53:52;;;;;;;41.30;18.55;;;;;;;;;;5055334;28;20049;-63
2021/10/12 00:56:19;;;;;;;37.63;17.20;;;;;;;;;;5055228;28;20044;-62
2021/10/12 00:58:47;;;;;;;42.40;18.65;;;;;;;;;;5055316;28;20049;-62
2021/10/12 01:01:14;;;;;;;40.17;18.13;;;;;;;;;;5054972;28;20053;-60
2021/10/12 01:03:42;;;;;;;40.25;17.60;;;;;;;;;;5054891;28;20060;-62
2021/10/12 01:06:10;;;;;;;35.17;16.10;;;;;;;;;;5054987;28;20520;-62
2021/10/12 01:08:36;;;;;;;41.38;16.60;;;;;;;;;;5054869;28;20502;-61
2021/10/12 01:11:04;;;;;;;34.30;15.07;;;;;;;;;;5054837;28;20088;-62
2021/10/12 01:13:31;;;;;;;39.90;16.52;;;;;;;;;;5054786;28;20049;-62
2021/10/12 01:15:57;;;;;;;41.42;17.45;;;;;;;;;;5054612;28;20045;-62
2021/10/12 01:18:24;;;;;;;34.83;16.35;;;;;;;;;;5054271;28;20071;-61
2021/10/12 01:20:53;;;;;;;39.80;16.60;;;;;;;;;;5054749;28;20079;-61
2021/10/12 01:23:22;;;;;;;37.25;16.17;;;;;;;;;;5054628;28;20098;-62
2021/10/12 01:25:49;;;;;;;40.22;19.33;;;;;;;;;;5054671;28;20413;-61
2021/10/12 01:28:16;;;;;;;40.90;19.75;;;;;;;;;;5054164;28;20049;-62
2021/10/12 01:30:43;;;;;;;44.70;19.15;;;;;;;;;;5054557;28;20072;-62
2021/10/12 01:33:11;;;;;;;41.00;19.73;;;;;;;;;;5054503;28;20053;-62
2021/10/12 01:35:38;;;;;;;40.47;18.08;;;;;;;;;;5054347;28;20060;-61
2021/10/12 01:38:07;;;;;;;36.80;18.25;;;;;;;;;;5054275;28;20049;-62
2021/10/12 01:40:34;;;;;;;44.67;19.98;;;;;;;;;;5054364;28;20052;-61
2021/10/12 01:43:01;;;;;;;53.30;20.35;;;;;;;;;;5054292;28;20497;-62
2021/10/12 01:45:28;;;;;;;48.25;19.77;;;;;;;;;;5054172;28;20049;-62
2021/10/12 01:47:55;;;;;;;51.70;22.88;;;;;;;;;;5053995;28;20067;-62
2021/10/12 01:50:22;;;;;;;52.67;22.92;;;;;;;;;;5053927;28;20055;-62
2021/10/12 01:52:50;;;;;;;53.85;23.63;;;;;;;;;;5053606;28;20053;-61
2021/10/12 01:55:20;;;;;;;47.58;21.98;;;;;;;;;;5054133;28;20478;-62
2021/10/12 01:57:47;;;;;;;;;;;;;;;;;;5054331;28;20071;-62
2021/10/12 02:00:15;;;;;;;45.83;20.77;;;;;;;;;;5053783;28;19943;-62
2021/10/12 02:02:42;;;;;;;53.72;22.98;;;;;;;;;;5054028;28;20053;-62
2021/10/12 02:05:09;;;;;;;50.67;22.65;;;;;;;;;;5054072;28;20051;-61
2021/10/12 02:14:35;;;;;;;44.38;20.23;;;;;;;;;;5053808;28;20129;-61
2021/10/12 02:17:02;;;;;;;42.08;19.27;;;;;;;;;;5051001;28;20059;-62
2021/10/12 02:19:29;;;;;;;47.72;20.90;;;;;;;;;;5053742;28;20390;-61
2021/10/12 02:21:58;;;;;;;42.83;18.85;;;;;;;;;;5053285;28;20084;-62
2021/10/12 02:24:25;;;;;;;48.00;22.00;;;;;;;;;;5053702;28;20426;-62
2021/10/12 02:27:12;;;;;;;43.50;20.15;;;;;;;;;;5052994;28;20053;-62
2021/10/12 02:29:40;;;;;;;46.70;20.38;;;;;;;;;;5050991;28;20059;-62
2021/10/12 02:32:07;;;;;;;64.32;27.38;;;;;;;;;;5053403;28;20516;-62
2021/10/12 02:34:34;;;;;;;58.67;26.60;;;;;;;;;;5053356;28;20057;-62
2021/10/12 02:37:01;;;;;;;42.97;19.55;;;;;;;;;;5052882;28;20057;-62
2021/10/12 02:39:28;;;;;;;42.05;18.92;;;;;;;;;;5053178;28;20053;-62
2021/10/12 02:41:55;;;;;;;52.60;21.55;;;;;;;;;;5053023;28;20048;-62
2021/10/12 02:44:22;;;;;;;42.03;19.98;;;;;;;;;;5053071;28;20080;-61
2021/10/12 02:46:50;;;;;;;45.58;20.25;;;;;;;;;;5052767;28;20455;-62
2021/10/12 02:49:17;;;;;;;47.30;20.45;;;;;;;;;;5053058;28;20048;-62
2021/10/12 02:51:44;;;;;;;49.00;21.30;;;;;;;;;;5052749;28;20523;-61
2021/10/12 02:54:11;;;;;;;47.85;20.65;;;;;;;;;;5052996;28;20053;-62
2021/10/12 02:56:38;;;;;;;46.65;21.35;;;;;;;;;;5052469;28;20049;-62
2021/10/12 02:59:05;;;;;;;47.00;21.48;;;;;;;;;;5052763;28;20057;-62
2021/10/12 03:01:32;;;;;;;51.90;22.23;;;;;;;;;;5052774;28;20144;-62
2021/10/12 03:04:00;;;;;;;52.05;23.02;;;;;;;;;;5052707;28;20448;-61
2021/10/12 03:06:27;;;;;;;60.15;26.02;;;;;;;;;;5052557;28;20532;-62
2021/10/12 03:08:54;;;;;;;55.65;24.55;;;;;;;;;;5053292;28;20060;-61
2021/10/12 03:11:21;;;;;;;49.28;23.83;;;;;;;;;;5052911;28;20052;-61
2021/10/12 03:13:48;;;;;;;55.80;24.88;;;;;;;;;;5052597;28;20430;-62
2021/10/12 03:16:15;;;;;;;51.45;21.55;;;;;;;;;;5052401;28;20056;-61
2021/10/12 03:18:42;;;;;;;57.65;25.80;;;;;;;;;;5052188;28;20076;-62
2021/10/12 03:21:10;;;;;;;57.80;24.83;;;;;;;;;;5052390;28;20053;-61
2021/10/12 03:23:37;;;;;;;54.78;23.30;;;;;;;;;;5052291;28;20160;-61
2021/10/12 03:26:04;;;;;;;57.13;25.25;;;;;;;;;;5052355;28;20049;-62
2021/10/12 03:28:31;;;;;;;58.85;25.55;;;;;;;;;;5051825;28;20053;-61
2021/10/12 03:30:58;;;;;;;53.17;24.08;;;;;;;;;;5052461;28;20494;-62
2021/10/12 03:33:25;;;;;;;56.38;25.52;;;;;;;;;;5052195;28;20060;-62
2021/10/12 03:35:56;;;;;;;64.65;26.05;;;;;;;;;;5052247;28;20045;-62
2021/10/12 03:38:26;;;;;;;61.20;26.23;;;;;;;;;;5051684;28;20056;-62
2021/10/12 03:40:54;;;;;;;65.28;25.27;;;;;;;;;;5052098;28;20048;-62
2021/10/12 03:43:21;;;;;;;61.85;24.67;;;;;;;;;;5051943;28;20060;-62
2021/10/12 03:45:48;;;;;;;60.75;25.20;;;;;;;;;;5052319;28;20087;-61
2021/10/12 03:48:15;;;;;;;60.65;24.60;;;;;;;;;;5051618;28;20552;-62
2021/10/12 03:50:42;;;;;;;54.55;25.23;;;;;;;;;;5051458;28;20410;-62
2021/10/12 03:53:09;;;;;;;59.33;22.77;;;;;;;;;;5051746;28;20084;-62
2021/10/12 03:55:38;;;;;;;58.20;24.67;;;;;;;;;;5052045;28;20486;-62
2021/10/12 03:58:05;;;;;;;61.55;26.13;;;;;;;;;;5051797;28;20449;-62
2021/10/12 04:00:32;;;;;;;63.67;28.02;;;;;;;;;;5051876;28;20132;-62
2021/10/12 04:02:59;;;;;;;62.85;26.52;;;;;;;;;;5051749;28;20095;-62
2021/10/12 04:05:26;;;;;;;68.25;25.50;;;;;;;;;;5051599;28;20095;-61
2021/10/12 04:07:54;;;;;;;59.17;24.42;;;;;;;;;;5051576;28;20048;-62
2021/10/12 04:10:21;;;;;;;64.55;25.20;;;;;;;;;;5051611;28;20045;-61
2021/10/12 04:12:49;;;;;;;69.75;27.45;;;;;;;;;;5051666;28;20055;-62
2021/10/12 04:15:16;;;;;;;55.72;25.33;;;;;;;;;;5051271;28;20505;-62
2021/10/12 04:17:43;;;;;;;61.67;26.65;;;;;;;;;;5051227;28;20063;-62
2021/10/12 04:20:11;;;;;;;64.35;24.40;;;;;;;;;;5051783;28;20494;-62
2021/10/12 04:22:38;;;;;;;57.97;25.08;;;;;;;;;;5051564;28;20063;-62
2021/10/12 04:25:06;;;;;;;60.75;25.00;;;;;;;;;;5051487;28;20057;-62
2021/10/12 04:27:34;;;;;;;57.92;24.48;;;;;;;;;;5051177;28;20049;-61
2021/10/12 04:30:03;;;;;;;63.47;25.30;;;;;;;;;;5051476;28;20056;-62
2021/10/12 04:32:30;;;;;;;63.70;25.40;;;;;;;;;;5051707;28;20049;-62
2021/10/12 04:34:57;;;;;;;61.78;25.80;;;;;;;;;;5051547;28;20045;-62
2021/10/12 04:37:24;;;;;;;66.00;26.80;;;;;;;;;;5051329;28;20049;-61
2021/10/12 04:39:52;;;;;;;58.58;24.15;;;;;;;;;;5051407;28;20053;-60
2021/10/12 04:42:19;;;;;;;64.00;24.55;;;;;;;;;;5051530;28;20545;-62
2021/10/12 04:44:49;;;;;;;62.75;25.75;;;;;;;;;;5051555;28;20049;-62
2021/10/12 04:47:19;;;;;;;67.40;27.45;;;;;;;;;;5051234;28;20052;-63
2021/10/12 04:49:46;;;;;;;65.20;25.25;;;;;;;;;;5051098;28;20048;-62
2021/10/12 04:54:43;;;;;;;60.05;24.83;;;;;;;;;;5071445;22;20102;-78
2021/10/12 04:57:09;;;;;;;59.00;24.95;;;;;;;;;;5068491;28;20051;-78
2021/10/12 04:59:36;;;;;;;57.22;25.90;;;;;;;;;;5071912;28;20564;-77
2021/10/12 05:02:03;;;;;;;61.83;26.40;;;;;;;;;;5072420;28;20341;-78
2021/10/12 05:04:31;;;;;;;64.90;25.90;;;;;;;;;;5073014;28;20106;-79
2021/10/12 05:06:58;;;;;;;64.20;26.45;;;;;;;;;;5073438;28;20453;-78
2021/10/12 05:09:25;;;;;;;62.55;24.92;;;;;;;;;;5074389;28;20056;-78
2021/10/12 05:11:51;;;;;;;64.30;26.48;;;;;;;;;;5074574;28;20418;-79
2021/10/12 05:14:19;;;;;;;62.30;24.98;;;;;;;;;;5073055;28;20048;-79
2021/10/12 05:16:48;;;;;;;67.30;28.92;;;;;;;;;;5073431;28;20091;-79
2021/10/12 05:19:15;;;;;;;62.20;26.13;;;;;;;;;;5074601;28;20045;-78
2021/10/12 05:21:43;;;;;;;67.63;27.55;;;;;;;;;;5074299;28;20075;-79
2021/10/12 05:24:10;;;;;;;69.20;28.77;;;;;;;;;;5073469;28;20044;-78
2021/10/12 05:26:37;;;;;;;69.53;27.55;;;;;;;;;;5073344;28;20048;-79
2021/10/12 05:29:04;;;;;;;70.05;30.00;;;;;;;;;;5078080;28;20048;-79
2021/10/12 05:31:30;;;;;;;67.50;27.23;;;;;;;;;;5077815;28;20049;-79
2021/10/12 05:33:57;;;;;;;71.43;28.52;;;;;;;;;;5077849;28;20048;-78
2021/10/12 05:36:24;;;;;;;65.75;28.80;;;;;;;;;;5077242;28;20067;-79
2021/10/12 05:38:52;;;;;;;67.57;27.75;;;;;;;;;;5076547;28;20162;-79
2021/10/12 05:41:19;;;;;;;79.65;31.40;;;;;;;;;;5076803;28;20048;-78
2021/10/12 05:43:46;;;;;;;69.88;28.38;;;;;;;;;;5078009;28;20078;-80
2021/10/12 05:46:13;;;;;;;70.18;28.58;;;;;;;;;;5080648;28;20104;-78
2021/10/12 05:48:40;;;;;;;69.22;30.75;;;;;;;;;;5082190;28;20483;-78
2021/10/12 05:51:08;;;;;;;71.85;30.25;;;;;;;;;;5080791;28;20049;-79
2021/10/12 05:53:42;;;;;;;71.07;28.23;;;;;;;;;;5082780;28;20041;-79
2021/10/12 05:56:14;;;;;;;74.03;30.48;;;;;;;;;;5070856;28;20044;-79
2021/10/12 05:58:43;;;;;;;72.03;29.98;;;;;;;;;;5056657;28;20084;-79
2021/10/12 06:01:12;;;;;;;67.32;29.27;;;;;;;;;;5057837;28;20045;-79
2021/10/12 06:03:39;;;;;;;76.03;30.65;;;;;;;;;;5056013;28;20044;-78
2021/10/12 06:06:06;;;;;;;63.50;28.08;;;;;;;;;;5055522;28;20045;-79
2021/10/12 06:08:36;;;;;;;69.10;29.65;;;;;;;;;;5056285;28;20519;-79
2021/10/12 06:11:04;;;;;;;69.28;28.42;;;;;;;;;;5055722;28;20055;-79
2021/10/12 06:13:33;;;;;;;72.78;30.08;;;;;;;;;;5056233;28;20049;-77
2021/10/12 06:16:00;;;;;;;69.22;30.25;;;;;;;;;;5055219;28;20108;-78
2021/10/12 06:18:29;;;;;;;67.70;29.02;;;;;;;;;;5055412;28;20056;-78
2021/10/12 06:20:57;;;;;;;64.78;30.10;;;;;;;;;;5056240;28;20049;-78
2021/10/12 06:23:24;;;;;;;72.85;28.50;;;;;;;;;;5056162;28;20053;-78
2021/10/12 06:25:52;;;;;;;73.00;30.38;;;;;;;;;;5055027;28;20095;-78
2021/10/12 06:28:20;;;;;;;64.18;27.33;;;;;;;;;;5055479;28;20666;-77
2021/10/12 06:30:49;;;;;;;71.57;29.35;;;;;;;;;;5055516;28;20045;-79
2021/10/12 06:33:16;;;;;;;70.00;28.00;;;;;;;;;;5055926;28;20045;-78
2021/10/12 06:35:43;;;;;;;67.18;28.60;;;;;;;;;;5055400;28;20265;-79
2021/10/12 06:38:10;;;;;;;68.28;28.00;;;;;;;;;;5054339;28;20045;-78
2021/10/12 06:40:37;;;;;;;63.78;27.45;;;;;;;;;;5056361;28;20068;-78
2021/10/12 06:43:04;;;;;;;73.07;28.00;;;;;;;;;;5055362;28;20075;-77
2021/10/12 06:45:31;;;;;;;65.93;28.10;;;;;;;;;;5054890;28;20049;-78
2021/10/12 06:48:00;;;;;;;63.72;27.73;;;;;;;;;;5055120;28;20045;-78
2021/10/12 06:50:27;;;;;;;64.18;26.90;;;;;;;;;;5055780;28;20449;-79
2021/10/12 06:52:53;;;;;;;65.93;28.05;;;;;;;;;;5054759;28;20084;-78
2021/10/12 06:55:21;;;;;;;68.38;28.95;;;;;;;;;;5055561;28;20053;-78
2021/10/12 06:57:48;;;;;;;67.90;31.92;;;;;;;;;;5054837;28;20048;-78
2021/10/12 07:00:17;;;;;;;67.90;28.50;;;;;;;;;;5056362;28;20049;-78
2021/10/12 07:02:45;;;;;;;62.88;27.15;;;;;;;;;;5058612;28;20102;-78
2021/10/12 07:05:15;;;;;;;66.78;26.48;;;;;;;;;;5058035;28;20098;-79
2021/10/12 07:07:42;;;;;;;64.35;27.40;;;;;;;;;;5056829;28;20049;-78
2021/10/12 07:10:10;;;;;;;67.28;26.67;;;;;;;;;;5057240;28;20470;-78
2021/10/12 07:12:38;;;;;;;64.20;29.80;;;;;;;;;;5056860;28;20119;-77
2021/10/12 07:15:06;;;;;;;69.57;28.05;;;;;;;;;;5058058;28;20242;-77
2021/10/12 07:17:33;;;;;;;64.97;27.30;;;;;;;;;;5058388;28;20045;-77
2021/10/12 07:20:00;;;;;;;69.90;30.02;;;;;;;;;;5060220;28;20454;-78
2021/10/12 07:22:28;;;;;;;77.95;32.28;;;;;;;;;;5060217;28;20068;-77
2021/10/12 07:24:55;;;;;;;81.38;34.80;;;;;;;;;;5058860;28;20071;-78
2021/10/12 07:27:22;;;;;;;79.28;32.03;;;;;;;;;;5058298;28;20045;-77
2021/10/12 07:29:50;;;;;;;57.92;26.50;;;;;;;;;;5061039;28;20492;-78
2021/10/12 07:32:19;;;;;;;62.20;28.02;;;;;;;;;;5061990;28;20045;-78
2021/10/12 07:34:46;;;;;;;58.42;26.33;;;;;;;;;;5064150;28;20068;-78
2021/10/12 07:37:13;;;;;;;60.55;26.27;;;;;;;;;;5063447;28;20044;-78
2021/10/12 07:39:42;;;;;;;67.30;27.88;;;;;;;;;;5063102;28;20071;-77
2021/10/12 07:42:09;;;;;;;69.07;30.88;;;;;;;;;;5060873;28;20114;-78
2021/10/12 07:44:37;;;;;;;64.22;26.70;;;;;;;;;;5061363;28;20499;-79
2021/10/12 07:47:04;;;;;;;70.97;27.50;;;;;;;;;;5061184;28;20088;-77
2021/10/12 07:49:32;;;;;;;75.70;29.52;;;;;;;;;;5062720;28;20381;-77
2021/10/12 07:51:59;;;;;;;70.13;30.55;;;;;;;;;;5063671;28;20079;-78
2021/10/12 07:54:37;;;;;;;68.20;30.45;;;;;;;;;;5060541;28;20049;-78
2021/10/12 07:57:05;;;;;;;58.75;25.48;;;;;;;;;;5064530;28;20053;-78
2021/10/12 07:59:32;;;;;;;68.22;28.02;;;;;;;;;;5062481;28;20082;-77
2021/10/12 08:01:59;;;;;;;67.57;27.45;;;;;;;;;;5062277;28;20049;-78
2021/10/12 08:04:26;;;;;;;64.07;28.38;;;;;;;;;;5061152;28;20052;-79
2021/10/12 08:06:53;;;;;;;63.90;27.60;;;;;;;;;;5061435;28;20053;-78
2021/10/12 08:09:24;;;;;;;74.30;30.23;;;;;;;;;;5057968;28;20098;-77
2021/10/12 08:11:53;;;;;;;65.22;28.52;;;;;;;;;;5057972;28;20045;-78
2021/10/12 08:14:22;;;;;;;57.65;24.90;;;;;;;;;;5058328;28;20053;-79
2021/10/12 08:16:49;;;;;;;62.72;25.90;;;;;;;;;;5058207;28;20105;-79
2021/10/12 08:19:18;;;;;;;59.47;24.95;;;;;;;;;;5058103;28;20111;-78
2021/10/12 08:21:48;;;;;;;62.10;26.35;;;;;;;;;;5059237;28;20059;-78
2021/10/12 08:24:19;;;;;;;58.50;23.77;;;;;;;;;;5059044;28;20059;-79
2021/10/12 08:26:47;;;;;;;64.22;26.35;;;;;;;;;;5059026;28;20048;-78
2021/10/12 08:29:15;;;;;;;62.70;26.70;;;;;;;;;;5059300;28;20053;-77
2021/10/12 08:31:43;;;;;;;62.10;25.42;;;;;;;;;;5058978;28;20045;-78
2021/10/12 08:34:13;;;;;;;54.67;23.65;;;;;;;;;;5059346;28;20055;-77
2021/10/12 08:36:41;;;;;;;62.93;25.33;;;;;;;;;;5059081;28;20046;-78
2021/10/12 08:39:09;;;;;;;64.55;26.23;;;;;;;;;;5056407;28;20045;-78
2021/10/12 08:41:42;;;;;;;61.65;25.35;;;;;;;;;;5055127;28;20140;-77
2021/10/12 08:44:10;;;;;;;59.42;24.55;;;;;;;;;;5055429;28;20053;-79
2021/10/12 08:46:38;;;;;;;61.53;25.45;;;;;;;;;;5054266;28;20111;-78
2021/10/12 08:49:06;;;;;;;61.30;25.88;;;;;;;;;;5056577;28;20478;-78
2021/10/12 08:51:33;;;;;;;58.67;24.92;;;;;;;;;;5058054;28;20106;-78
2021/10/12 08:54:00;;;;;;;59.83;24.85;;;;;;;;;;5055097;28;20053;-79
2021/10/12 08:56:27;;;;;;;62.67;26.17;;;;;;;;;;5064810;28;20048;-79
2021/10/12 08:58:54;;;;;;;60.17;25.85;;;;;;;;;;5075723;28;20048;-79
2021/10/12 09:01:21;;;;;;;55.80;24.25;;;;;;;;;;5077158;28;20048;-78
2021/10/12 09:03:52;;;;;;;52.63;24.10;;;;;;;;;;5078486;28;20044;-78
2021/10/12 09:06:29;;;;;;;44.75;20.65;;;;;;;;;;5079957;28;20150;-78
2021/10/12 09:08:58;;;;;;;45.55;20.77;;;;;;;;;;5079401;28;20095;-78
2021/10/12 09:11:27;;;;;;;45.72;22.52;;;;;;;;;;5084548;28;20048;-78
2021/10/12 09:14:01;;;;;;;48.35;20.35;;;;;;;;;;5081297;28;20044;-78
2021/10/12 09:16:32;;;;;;;44.58;20.42;;;;;;;;;;5078593;28;20044;-79
2021/10/12 09:19:01;;;;;;;47.40;21.30;;;;;;;;;;5081585;28;20495;-79
2021/10/12 09:21:39;;;;;;;50.92;22.02;;;;;;;;;;5083455;28;20118;-80
2021/10/12 09:24:09;;;;;;;55.55;25.88;;;;;;;;;;5084628;28;20060;-78
2021/10/12 09:26:38;;;;;;;60.13;24.73;;;;;;;;;;5080523;28;20083;-78
2021/10/12 09:29:09;;;;;;;63.67;26.37;;;;;;;;;;5078550;28;20078;-79
2021/10/12 09:31:39;;;;;;;59.85;25.67;;;;;;;;;;5078556;28;20082;-78
2021/10/12 09:34:08;;;;;;;44.20;21.67;;;;;;;;;;5078115;28;20079;-78
2021/10/12 09:36:38;;;;;;;43.45;20.00;;;;;;;;;;5078464;28;20102;-80
2021/10/12 09:39:07;;;;;;;;;;;;;;;;;;5078013;28;20483;-78
2021/10/12 09:41:35;;;;;;;50.90;21.40;;;;;;;;;;5077153;28;19960;-78
2021/10/12 09:44:13;;;;;;;51.08;21.70;;;;;;;;;;5076621;28;20051;-78
2021/10/12 09:46:42;;;;;;;44.42;20.30;;;;;;;;;;5076601;28;20045;-79
2021/10/12 09:49:10;;;;;;;55.10;23.10;;;;;;;;;;5075513;28;20113;-77
2021/10/12 09:51:42;;;;;;;52.13;23.08;;;;;;;;;;5075448;28;20084;-78
2021/10/12 09:54:20;;;;;;;45.30;21.35;;;;;;;;;;5074973;28;20048;-78
2021/10/12 09:56:47;;;;;;;48.55;21.38;;;;;;;;;;5076002;28;20400;-78
2021/10/12 09:59:14;;;;;;;49.88;23.33;;;;;;;;;;5076326;28;20458;-79
2021/10/12 10:01:42;;;;;;;46.17;20.77;;;;;;;;;;5076572;28;20052;-79
2021/10/12 10:04:11;;;;;;;45.20;21.85;;;;;;;;;;5076441;28;20137;-79
2021/10/12 10:06:43;;;;;;;40.17;18.83;;;;;;;;;;5076528;28;20127;-80
2021/10/12 10:09:12;;;;;;;35.55;17.70;;;;;;;;;;5076491;28;20045;-78
2021/10/12 10:11:39;;;;;;;39.60;17.98;;;;;;;;;;5074225;28;20131;-79
2021/10/12 10:14:08;;;;;;;41.15;18.92;;;;;;;;;;5076494;28;20044;-78
2021/10/12 10:16:37;;;;;;;42.03;18.10;;;;;;;;;;5076585;28;20048;-79
2021/10/12 10:19:08;;;;;;;37.97;17.33;;;;;;;;;;5077198;28;20075;-79
2021/10/12 10:21:41;;;;;;;35.55;15.63;;;;;;;;;;5077587;28;20048;-78
2021/10/12 10:24:12;;;;;;;33.00;16.17;;;;;;;;;;5077441;28;20104;-79
2021/10/12 10:26:41;;;;;;;37.58;18.80;;;;;;;;;;5091513;28;20045;-78
2021/10/12 10:29:21;;;;;;;33.67;16.10;;;;;;;;;;5090195;28;20049;-79
2021/10/12 10:31:51;;;;;;;32.78;14.98;;;;;;;;;;5091278;28;20047;-78
2021/10/12 10:34:36;;;;;;;43.42;16.67;;;;;;;;;;5083685;28;20049;-79
2021/10/12 10:37:30;;;;;;;37.78;15.90;;;;;;;;;;5077972;28;20048;-79
2021/10/12 10:40:00;;;;;;;38.95;16.45;;;;;;;;;;5079184;28;20083;-79
2021/10/12 10:43:01;;;;;;;34.50;14.73;;;;;;;;;;5077364;28;20468;-79
2021/10/12 10:45:50;;;;;;;34.80;15.32;;;;;;;;;;4994855;28;20047;-78
2021/10/12 10:48:19;;;;;;;37.22;15.75;;;;;;;;;;4994432;28;20095;-79
2021/10/12 10:50:47;;;;;;;40.65;17.50;;;;;;;;;;5044402;28;20515;-78
2021/10/12 10:53:39;;;;;;;35.53;16.02;;;;;;;;;;5102995;22;20443;-78
2021/10/12 10:56:06;;;;;;;36.97;15.70;;;;;;;;;;5062851;28;20123;-78
2021/10/12 10:58:33;;;;;;;33.10;16.10;;;;;;;;;;5074601;28;20084;-78
2021/10/12 11:00:59;;;;;;;31.20;15.40;;;;;;;;;;5073435;28;20422;-79
2021/10/12 11:03:39;;;;;;;31.88;16.52;;;;;;;;;;5076340;28;20056;-79
2021/10/12 11:06:12;;;;;;;34.33;16.92;;;;;;;;;;5076326;28;20074;-79
2021/10/12 11:08:55;;;;;;;34.47;15.45;;;;;;;;;;5077102;28;20052;-79
2021/10/12 11:11:22;;;;;;;30.75;15.02;;;;;;;;;;5077388;28;20044;-79
2021/10/12 11:13:49;;;;;;;37.03;16.55;;;;;;;;;;5076730;28;20048;-79
2021/10/12 11:16:17;;;;;;;33.63;16.38;;;;;;;;;;5075570;28;20099;-79
2021/10/12 11:18:45;;;;;;;30.48;14.48;;;;;;;;;;5074236;28;20524;-79
2021/10/12 11:21:14;;;;;;;38.38;16.83;;;;;;;;;;5076065;28;20465;-79
2021/10/12 11:23:48;;;;;;;33.42;14.75;;;;;;;;;;5076736;28;20048;-79
2021/10/12 11:26:16;;;;;;;44.63;22.38;;;;;;;;;;5080087;28;20048;-79
2021/10/12 11:28:47;;;;;;;30.35;15.65;;;;;;;;;;5079884;28;20079;-79
2021/10/12 11:31:16;;;;;;;25.90;13.35;;;;;;;;;;5078382;28;20108;-80
2021/10/12 11:33:45;;;;;;;24.88;11.82;;;;;;;;;;5092165;28;20499;-79
2021/10/12 11:36:13;;;;;;;24.38;11.70;;;;;;;;;;5097194;28;20033;-79
2021/10/12 11:38:43;;;;;;;32.10;15.10;;;;;;;;;;5096957;28;20112;-79
2021/10/12 11:41:15;;;;;;;35.95;15.55;;;;;;;;;;5087884;28;20591;-80
2021/10/12 11:43:43;;;;;;;24.73;12.32;;;;;;;;;;5079781;28;20052;-80
2021/10/12 11:46:11;;;;;;;23.48;12.13;;;;;;;;;;5078819;28;20052;-80
2021/10/12 11:48:39;;;;;;;27.33;12.63;;;;;;;;;;5078832;28;20048;-78
2021/10/12 11:51:16;;;;;;;24.25;12.68;;;;;;;;;;5077725;28;20118;-78
2021/10/12 11:53:47;;;;;;;33.90;16.92;;;;;;;;;;5074271;28;20052;-78
2021/10/12 11:56:16;;;;;;;32.80;15.45;;;;;;;;;;5066715;28;20048;-78
2021/10/12 11:58:43;;;;;;;24.42;12.93;;;;;;;;;;5054813;28;20045;-78
2021/10/12 12:01:11;;;;;;;24.35;13.70;;;;;;;;;;5056009;28;20049;-78
2021/10/12 12:03:41;;;;;;;20.65;11.52;;;;;;;;;;5056065;28;20053;-78
2021/10/12 12:06:09;;;;;;;22.25;11.20;;;;;;;;;;5057321;28;20135;-78
2021/10/12 12:08:40;;;;;;;22.55;10.88;;;;;;;;;;5054818;28;20500;-78
2021/10/12 12:11:09;;;;;;;21.58;10.90;;;;;;;;;;5056963;28;20124;-79
2021/10/12 12:13:36;;;;;;;21.08;10.73;;;;;;;;;;5057278;28;20487;-79
2021/10/12 12:16:04;;;;;;;15.93;8.82;;;;;;;;;;5056508;28;20049;-79
2021/10/12 12:18:38;;;;;;;17.92;9.38;;;;;;;;;;5054126;28;20045;-78
2021/10/12 12:21:05;;;;;;;17.80;8.60;;;;;;;;;;5052262;28;20083;-77
2021/10/12 12:23:36;;;;;;;18.63;8.95;;;;;;;;;;5053581;28;20049;-80
2021/10/12 12:26:04;;;;;;;17.10;8.57;;;;;;;;;;5055893;28;20554;-78
2021/10/12 12:28:33;;;;;;;21.40;9.95;;;;;;;;;;5056092;28;20495;-82
2021/10/12 12:31:16;;;;;;;21.08;9.75;;;;;;;;;;5055852;28;20547;-79
2021/10/12 12:33:43;;;;;;;20.45;10.85;;;;;;;;;;5058427;28;20049;-79
2021/10/12 12:36:10;;;;;;;22.10;10.73;;;;;;;;;;5061218;28;20045;-78
2021/10/12 12:38:37;;;;;;;25.92;11.75;;;;;;;;;;5062401;28;20067;-78
2021/10/12 12:41:17;;;;;;;20.80;11.02;;;;;;;;;;5063107;28;20079;-78
2021/10/12 12:43:53;;;;;;;25.00;12.15;;;;;;;;;;5061518;28;20431;-78
2021/10/12 12:46:22;;;;;;;18.10;10.10;;;;;;;;;;5061147;28;20049;-79
2021/10/12 12:49:06;;;;;;;22.98;10.52;;;;;;;;;;5058907;28;20049;-79
2021/10/12 12:51:34;;;;;;;19.63;10.38;;;;;;;;;;5059448;28;20049;-79
2021/10/12 12:54:01;;;;;;;22.33;10.43;;;;;;;;;;5058543;28;20106;-79
2021/10/12 12:56:34;;;;;;;21.17;10.35;;;;;;;;;;5068282;28;20458;-79
2021/10/12 12:59:10;;;;;;;17.50;8.75;;;;;;;;;;5079243;28;20044;-79
2021/10/12 13:01:40;;;;;;;18.95;9.35;;;;;;;;;;5079259;28;20094;-79
2021/10/12 13:04:07;;;;;;;17.67;8.23;;;;;;;;;;5078917;28;20040;-79
2021/10/12 13:06:34;;;;;;;18.33;9.88;;;;;;;;;;5079030;28;20102;-79
2021/10/12 13:09:03;;;;;;;19.70;10.18;;;;;;;;;;5077925;28;20041;-79
2021/10/12 13:11:33;;;;;;;23.92;11.45;;;;;;;;;;5076526;28;20116;-78
2021/10/12 13:14:00;;;;;;;20.58;10.75;;;;;;;;;;5076805;28;20052;-78
2021/10/12 13:16:29;;;;;;;23.73;10.57;;;;;;;;;;5076720;28;20048;-79
2021/10/12 13:18:55;;;;;;;24.33;13.23;;;;;;;;;;5076576;28;20041;-79
2021/10/12 13:21:22;;;;;;;43.85;23.10;;;;;;;;;;5076496;28;20056;-79
2021/10/12 13:23:49;;;;;;;31.70;14.18;;;;;;;;;;5076783;28;20502;-79
2021/10/12 13:26:16;;;;;;;29.10;14.82;;;;;;;;;;5076757;28;20129;-79
2021/10/12 13:28:43;;;;;;;29.25;15.02;;;;;;;;;;5076481;28;20102;-78
2021/10/12 13:31:09;;;;;;;33.03;15.90;;;;;;;;;;5079301;28;20048;-79
2021/10/12 13:33:38;;;;;;;39.00;16.73;;;;;;;;;;5079469;28;20122;-79
2021/10/12 13:36:05;;;;;;;31.23;16.20;;;;;;;;;;5078994;28;20144;-79
2021/10/12 13:38:33;;;;;;;37.13;18.67;;;;;;;;;;5079071;28;20044;-79
2021/10/12 13:41:00;;;;;;;37.83;17.25;;;;;;;;;;5077506;28;20041;-78
2021/10/12 13:43:27;;;;;;;36.60;17.70;;;;;;;;;;5078402;28;20045;-78
2021/10/12 13:45:54;;;;;;;32.08;15.82;;;;;;;;;;5079271;28;20576;-79
2021/10/12 13:48:21;;;;;;;34.28;17.02;;;;;;;;;;5078520;28;20128;-79
2021/10/12 13:50:49;;;;;;;43.90;17.95;;;;;;;;;;5079337;28;20044;-79
2021/10/12 13:53:16;;;;;;;37.60;17.38;;;;;;;;;;5077993;28;20049;-79
2021/10/12 13:55:43;;;;;;;37.67;18.52;;;;;;;;;;5078281;28;20111;-78
2021/10/12 13:58:10;;;;;;;35.85;16.83;;;;;;;;;;5078344;28;20048;-79
2021/10/12 14:00:38;;;;;;;39.58;20.30;;;;;;;;;;5079448;28;20132;-79
2021/10/12 14:03:05;;;;;;;34.97;18.23;;;;;;;;;;5078223;28;20054;-79
2021/10/12 14:05:36;;;;;;;31.40;15.85;;;;;;;;;;5079021;28;20128;-79
2021/10/12 14:08:05;;;;;;;32.28;15.05;;;;;;;;;;5077036;28;20470;-78
2021/10/12 14:10:32;;;;;;;34.90;16.33;;;;;;;;;;5077923;28;20052;-78
2021/10/12 14:13:01;;;;;;;30.85;15.05;;;;;;;;;;5078821;28;20468;-79
2021/10/12 14:15:28;;;;;;;30.33;14.57;;;;;;;;;;5080165;28;20095;-79
2021/10/12 14:17:56;;;;;;;28.90;13.77;;;;;;;;;;5077460;28;20098;-78
2021/10/12 14:20:24;;;;;;;25.33;13.75;;;;;;;;;;5077663;28;20048;-79
2021/10/12 14:22:51;;;;;;;30.60;13.77;;;;;;;;;;5077221;28;20052;-79
2021/10/12 14:25:19;;;;;;;29.00;14.45;;;;;;;;;;5077290;28;20461;-79
2021/10/12 14:27:46;;;;;;;29.77;14.63;;;;;;;;;;5077315;28;20052;-79
2021/10/12 14:30:17;;;;;;;23.65;12.35;;;;;;;;;;5080200;28;20078;-78
2021/10/12 14:32:44;;;;;;;24.95;13.98;;;;;;;;;;5082920;28;20071;-78
2021/10/12 14:35:11;;;;;;;32.45;14.93;;;;;;;;;;5096347;28;20044;-78
2021/10/12 14:37:38;;;;;;;25.98;13.43;;;;;;;;;;5097416;28;20054;-78